createdAt,value
2022-10-19T00:00:03.176Z,0.00
2022-10-19T00:01:03.274Z,0.00
2022-10-19T00:02:02.946Z,0.00
2022-10-19T00:03:02.446Z,0.00
2022-10-19T00:04:04.869Z,0.00
2022-10-19T00:05:02.724Z,0.00
2022-10-19T00:06:02.581Z,0.00
2022-10-19T00:07:02.496Z,0.00
2022-10-19T00:08:03.104Z,0.00
2022-10-19T00:09:02.759Z,0.00
2022-10-19T00:10:02.644Z,0.00
2022-10-19T00:11:02.536Z,0.00
2022-10-19T00:12:02.093Z,0.00
2022-10-19T00:13:02.682Z,0.00
2022-10-19T00:14:02.192Z,0.00
2022-10-19T00:15:02.670Z,0.00
2022-10-19T00:16:02.230Z,0.00
2022-10-19T00:17:02.715Z,0.00
2022-10-19T00:18:03.364Z,0.00
2022-10-19T00:19:03.186Z,0.00
2022-10-19T00:20:03.015Z,0.00
2022-10-19T00:21:02.925Z,0.00
2022-10-19T00:22:02.833Z,0.00
2022-10-19T00:23:03.306Z,0.00
2022-10-19T00:24:03.149Z,0.00
2022-10-19T00:25:02.852Z,0.00
2022-10-19T00:26:03.512Z,0.00
2022-10-19T00:27:02.234Z,0.00
2022-10-19T00:28:02.088Z,0.00
2022-10-19T00:29:02.719Z,0.00
2022-10-19T00:30:02.378Z,0.00
2022-10-19T00:31:02.188Z,0.00
2022-10-19T00:32:02.772Z,0.00
2022-10-19T00:33:03.051Z,0.00
2022-10-19T00:34:02.859Z,0.00
2022-10-19T00:35:03.048Z,0.00
2022-10-19T00:36:02.931Z,0.00
2022-10-19T00:37:02.664Z,0.00
2022-10-19T00:38:02.888Z,0.00
2022-10-19T00:39:02.697Z,0.00
2022-10-19T00:40:03.235Z,0.00
2022-10-19T00:41:03.191Z,0.00
2022-10-19T00:42:03.035Z,0.00
2022-10-19T00:43:03.566Z,0.00
2022-10-19T00:44:03.541Z,0.00
2022-10-19T00:45:03.148Z,0.00
2022-10-19T00:46:02.989Z,0.00
2022-10-19T00:47:02.565Z,0.00
2022-10-19T00:48:03.048Z,0.00
2022-10-19T00:49:04.002Z,0.00
2022-10-19T00:50:02.520Z,0.00
2022-10-19T00:51:03.034Z,0.00
2022-10-19T00:52:02.699Z,0.00
2022-10-19T00:53:02.795Z,0.00
2022-10-19T00:54:02.997Z,0.00
2022-10-19T00:55:02.864Z,0.00
2022-10-19T00:56:02.791Z,0.00
2022-10-19T00:57:02.464Z,0.00
2022-10-19T00:58:02.867Z,0.00
2022-10-19T00:59:02.520Z,0.00
2022-10-19T01:00:02.428Z,0.00
2022-10-19T01:01:02.455Z,0.00
2022-10-19T01:02:03.104Z,0.00
2022-10-19T01:03:02.966Z,0.00
2022-10-19T01:04:02.927Z,0.00
2022-10-19T01:05:03.473Z,0.00
2022-10-19T01:06:03.081Z,0.00
2022-10-19T01:07:02.445Z,0.00
2022-10-19T01:08:02.951Z,0.00
2022-10-19T01:09:02.528Z,0.00
2022-10-19T01:10:03.066Z,0.00
2022-10-19T01:11:02.629Z,0.00
2022-10-19T01:12:03.123Z,0.00
2022-10-19T01:13:03.044Z,0.00
2022-10-19T01:14:02.905Z,0.00
2022-10-19T01:15:03.522Z,0.00
2022-10-19T01:16:03.132Z,0.00
2022-10-19T01:17:03.001Z,0.00
2022-10-19T01:18:02.561Z,0.00
2022-10-19T01:19:02.361Z,0.00
2022-10-19T01:20:02.851Z,0.00
2022-10-19T01:21:02.868Z,0.00
2022-10-19T01:22:02.505Z,0.00
2022-10-19T01:23:02.446Z,0.00
2022-10-19T01:24:02.396Z,0.00
2022-10-19T01:25:02.741Z,0.00
2022-10-19T01:26:02.491Z,0.00
2022-10-19T01:27:02.935Z,0.00
2022-10-19T01:28:02.884Z,0.00
2022-10-19T01:29:02.772Z,0.00
2022-10-19T01:30:03.492Z,0.00
2022-10-19T01:31:03.068Z,0.00
2022-10-19T01:32:02.702Z,0.00
2022-10-19T01:33:02.445Z,0.00
2022-10-19T01:34:02.907Z,0.00
2022-10-19T01:35:02.427Z,0.00
2022-10-19T01:36:02.867Z,0.00
2022-10-19T01:37:02.533Z,0.00
2022-10-19T01:38:02.306Z,0.00
2022-10-19T01:39:02.721Z,0.00
2022-10-19T01:40:02.452Z,0.00
2022-10-19T01:41:02.769Z,0.00
2022-10-19T01:42:03.517Z,0.00
2022-10-19T01:43:03.031Z,0.00
2022-10-19T01:44:03.545Z,0.00
2022-10-19T01:45:03.508Z,0.00
2022-10-19T01:46:03.538Z,0.00
2022-10-19T01:47:02.497Z,0.00
2022-10-19T01:48:02.542Z,0.00
2022-10-19T01:49:02.971Z,0.00
2022-10-19T01:50:02.815Z,0.00
2022-10-19T01:51:02.693Z,0.00
2022-10-19T01:52:03.192Z,0.00
2022-10-19T01:53:03.157Z,0.00
2022-10-19T01:54:03.125Z,0.00
2022-10-19T01:55:02.924Z,0.00
2022-10-19T01:56:03.028Z,0.00
2022-10-19T01:57:03.564Z,0.00
2022-10-19T01:58:06.241Z,0.00
2022-10-19T01:59:03.486Z,0.00
2022-10-19T02:00:03.349Z,0.00
2022-10-19T02:01:03.565Z,0.00
2022-10-19T02:02:02.921Z,0.00
2022-10-19T02:03:03.068Z,0.00
2022-10-19T02:04:02.904Z,0.00
2022-10-19T02:05:02.814Z,0.00
2022-10-19T02:06:02.637Z,0.00
2022-10-19T02:07:03.526Z,0.00
2022-10-19T02:08:02.935Z,0.00
2022-10-19T02:09:02.857Z,0.00
2022-10-19T02:10:02.884Z,0.00
2022-10-19T02:11:03.375Z,0.00
2022-10-19T02:12:02.629Z,0.00
2022-10-19T02:13:02.525Z,0.00
2022-10-19T02:14:02.524Z,0.00
2022-10-19T02:15:02.450Z,0.00
2022-10-19T02:16:02.367Z,0.00
2022-10-19T02:17:02.798Z,0.00
2022-10-19T02:18:02.646Z,0.00
2022-10-19T02:19:02.575Z,0.00
2022-10-19T02:20:02.342Z,0.00
2022-10-19T02:21:02.775Z,0.00
2022-10-19T02:22:02.969Z,0.00
2022-10-19T02:23:03.377Z,0.00
2022-10-19T02:24:02.877Z,0.00
2022-10-19T02:25:02.769Z,0.00
2022-10-19T02:26:03.526Z,0.00
2022-10-19T02:27:02.934Z,0.00
2022-10-19T02:28:02.549Z,0.00
2022-10-19T02:29:02.372Z,0.00
2022-10-19T02:30:02.889Z,0.00
2022-10-19T02:31:02.257Z,0.00
2022-10-19T02:32:03.499Z,0.00
2022-10-19T02:33:03.085Z,0.00
2022-10-19T02:34:02.916Z,0.00
2022-10-19T02:35:03.456Z,0.00
2022-10-19T02:36:03.202Z,0.00
2022-10-19T02:37:02.387Z,0.00
2022-10-19T02:38:02.760Z,0.00
2022-10-19T02:39:02.161Z,0.00
2022-10-19T02:40:02.769Z,0.00
2022-10-19T02:41:02.296Z,0.00
2022-10-19T02:42:02.812Z,0.00
2022-10-19T02:43:02.697Z,0.00
2022-10-19T02:44:02.663Z,0.00
2022-10-19T02:45:02.490Z,0.00
2022-10-19T02:46:02.474Z,0.00
2022-10-19T02:47:03.545Z,0.00
2022-10-19T02:48:03.531Z,0.00
2022-10-19T02:49:03.051Z,0.00
2022-10-19T02:50:03.140Z,0.00
2022-10-19T02:51:03.370Z,0.00
2022-10-19T02:52:03.043Z,0.00
2022-10-19T02:53:03.616Z,0.00
2022-10-19T02:54:05.195Z,0.00
2022-10-19T02:55:03.519Z,0.00
2022-10-19T02:56:03.121Z,0.00
2022-10-19T02:57:02.684Z,0.00
2022-10-19T02:58:03.213Z,0.00
2022-10-19T02:59:03.034Z,0.00
2022-10-19T03:00:02.832Z,0.00
2022-10-19T03:01:03.047Z,0.00
2022-10-19T03:02:01.921Z,0.00
2022-10-19T03:03:02.504Z,0.00
2022-10-19T03:04:02.031Z,0.00
2022-10-19T03:05:02.533Z,0.00
2022-10-19T03:06:02.075Z,0.00
2022-10-19T03:07:02.560Z,0.00
2022-10-19T03:08:03.121Z,0.00
2022-10-19T03:09:02.956Z,0.00
2022-10-19T03:10:02.858Z,0.00
2022-10-19T03:11:02.576Z,0.00
2022-10-19T03:12:02.007Z,0.00
2022-10-19T03:13:02.324Z,0.00
2022-10-19T03:14:02.579Z,0.00
2022-10-19T03:15:02.111Z,0.00
2022-10-19T03:16:02.608Z,0.00
2022-10-19T03:17:02.169Z,0.00
2022-10-19T03:18:02.014Z,0.00
2022-10-19T03:19:02.648Z,0.00
2022-10-19T03:20:02.619Z,0.00
2022-10-19T03:21:02.264Z,0.00
2022-10-19T03:22:02.853Z,0.00
2022-10-19T03:23:02.792Z,0.00
2022-10-19T03:24:03.359Z,0.00
2022-10-19T03:25:02.951Z,0.00
2022-10-19T03:26:02.726Z,0.00
2022-10-19T03:27:02.607Z,0.00
2022-10-19T03:28:02.468Z,0.00
2022-10-19T03:29:02.636Z,0.00
2022-10-19T03:30:02.527Z,0.00
2022-10-19T03:31:03.008Z,0.00
2022-10-19T03:32:02.830Z,0.00
2022-10-19T03:33:02.742Z,0.00
2022-10-19T03:34:02.584Z,0.00
2022-10-19T03:35:02.926Z,0.00
2022-10-19T03:36:02.801Z,0.00
2022-10-19T03:37:02.314Z,0.00
2022-10-19T03:38:02.286Z,0.00
2022-10-19T03:39:02.147Z,0.00
2022-10-19T03:40:02.690Z,0.00
2022-10-19T03:41:02.294Z,0.00
2022-10-19T03:42:02.146Z,0.00
2022-10-19T03:43:02.674Z,0.00
2022-10-19T03:44:02.626Z,0.00
2022-10-19T03:45:02.404Z,0.00
2022-10-19T03:46:02.247Z,0.00
2022-10-19T03:47:02.813Z,0.00
2022-10-19T03:48:02.587Z,0.00
2022-10-19T03:49:03.156Z,0.00
2022-10-19T03:50:03.136Z,0.00
2022-10-19T03:51:02.806Z,0.00
2022-10-19T03:52:02.319Z,0.00
2022-10-19T03:54:02.746Z,0.00
2022-10-19T03:55:02.574Z,0.00
2022-10-19T03:56:02.457Z,0.00
2022-10-19T03:57:02.790Z,0.00
2022-10-19T03:58:02.821Z,0.00
2022-10-19T03:59:02.936Z,0.00
2022-10-19T04:00:02.897Z,0.00
2022-10-19T04:01:03.025Z,0.00
2022-10-19T04:02:02.857Z,0.00
2022-10-19T04:03:02.655Z,0.00
2022-10-19T04:04:02.911Z,0.00
2022-10-19T04:05:02.590Z,0.00
2022-10-19T04:06:02.506Z,0.00
2022-10-19T04:07:02.195Z,0.00
2022-10-19T04:08:02.078Z,0.00
2022-10-19T04:09:02.034Z,0.00
2022-10-19T04:10:01.956Z,0.00
2022-10-19T04:11:01.742Z,0.00
2022-10-19T04:12:02.307Z,0.00
2022-10-19T04:13:02.186Z,0.00
2022-10-19T04:14:02.120Z,0.00
2022-10-19T04:15:02.267Z,0.00
2022-10-19T04:16:02.260Z,0.00
2022-10-19T04:17:02.887Z,0.00
2022-10-19T04:18:02.728Z,0.00
2022-10-19T04:19:02.559Z,0.00
2022-10-19T04:20:02.430Z,0.00
2022-10-19T04:21:02.471Z,0.00
2022-10-19T04:22:01.966Z,0.00
2022-10-19T04:23:01.773Z,0.00
2022-10-19T04:24:01.766Z,0.00
2022-10-19T04:25:01.624Z,0.00
2022-10-19T04:26:02.161Z,0.00
2022-10-19T04:27:02.831Z,0.00
2022-10-19T04:28:02.662Z,0.00
2022-10-19T04:29:02.567Z,0.00
2022-10-19T04:30:02.472Z,0.00
2022-10-19T04:31:02.416Z,0.00
2022-10-19T04:32:02.932Z,0.00
2022-10-19T04:33:02.761Z,0.00
2022-10-19T04:34:02.622Z,0.00
2022-10-19T04:35:02.528Z,0.00
2022-10-19T04:36:02.957Z,0.00
2022-10-19T04:37:02.679Z,0.00
2022-10-19T04:38:02.282Z,0.00
2022-10-19T04:39:02.591Z,0.00
2022-10-19T04:40:02.215Z,0.00
2022-10-19T04:41:02.049Z,0.00
2022-10-19T04:42:02.097Z,0.00
2022-10-19T04:43:02.664Z,0.00
2022-10-19T04:44:02.584Z,0.00
2022-10-19T04:45:02.483Z,0.00
2022-10-19T04:46:02.314Z,0.00
2022-10-19T04:47:02.941Z,0.00
2022-10-19T04:48:02.730Z,0.00
2022-10-19T04:49:02.741Z,0.00
2022-10-19T04:50:02.578Z,0.00
2022-10-19T04:51:02.381Z,0.00
2022-10-19T04:52:02.996Z,0.00
2022-10-19T04:53:02.810Z,0.00
2022-10-19T04:54:02.632Z,0.00
2022-10-19T04:55:02.444Z,0.00
2022-10-19T04:56:02.859Z,0.00
2022-10-19T04:57:02.494Z,0.00
2022-10-19T04:58:02.182Z,0.00
2022-10-19T04:59:02.043Z,0.00
2022-10-19T05:00:01.966Z,0.00
2022-10-19T05:01:02.025Z,0.00
2022-10-19T05:02:02.887Z,0.00
2022-10-19T05:03:02.610Z,0.00
2022-10-19T05:04:02.575Z,0.00
2022-10-19T05:05:02.467Z,0.00
2022-10-19T05:06:02.549Z,0.00
2022-10-19T05:07:03.088Z,0.00
2022-10-19T05:08:02.682Z,0.00
2022-10-19T05:09:02.497Z,0.00
2022-10-19T05:10:02.997Z,0.00
2022-10-19T05:11:02.770Z,0.00
2022-10-19T05:12:02.755Z,0.00
2022-10-19T05:13:03.229Z,0.00
2022-10-19T05:14:02.848Z,0.00
2022-10-19T05:15:02.786Z,0.00
2022-10-19T05:16:03.204Z,0.00
2022-10-19T05:17:03.744Z,0.00
2022-10-19T05:18:03.503Z,0.00
2022-10-19T05:19:03.410Z,0.00
2022-10-19T05:20:03.227Z,0.00
2022-10-19T05:21:03.820Z,0.00
2022-10-19T05:22:03.147Z,0.00
2022-10-19T05:23:06.304Z,0.00
2022-10-19T05:24:02.619Z,0.00
2022-10-19T05:25:03.161Z,0.00
2022-10-19T05:26:02.695Z,4.00
2022-10-19T05:27:03.004Z,4.00
2022-10-19T05:28:03.522Z,0.00
2022-10-19T05:29:03.243Z,0.00
2022-10-19T05:30:03.188Z,4.00
2022-10-19T05:31:03.086Z,4.00
2022-10-19T05:32:03.032Z,0.00
2022-10-19T05:33:03.518Z,4.00
2022-10-19T05:34:03.395Z,0.00
2022-10-19T05:35:03.499Z,4.00
2022-10-19T05:36:03.501Z,4.00
2022-10-19T05:37:02.939Z,4.00
2022-10-19T05:38:03.076Z,4.00
2022-10-19T05:39:02.742Z,4.00
2022-10-19T05:40:02.649Z,8.00
2022-10-19T05:41:02.485Z,12.00
2022-10-19T05:42:03.025Z,12.00
2022-10-19T05:43:03.597Z,16.00
2022-10-19T05:44:03.220Z,16.00
2022-10-19T05:45:03.202Z,20.00
2022-10-19T05:46:03.175Z,24.00
2022-10-19T05:47:03.521Z,28.00
2022-10-19T05:48:03.550Z,28.00
2022-10-19T05:49:03.340Z,36.00
2022-10-19T05:50:03.194Z,44.00
2022-10-19T05:51:03.072Z,44.00
2022-10-19T05:52:02.655Z,52.00
2022-10-19T05:53:02.838Z,64.00
2022-10-19T05:54:02.437Z,72.00
2022-10-19T05:55:02.280Z,84.00
2022-10-19T05:56:02.755Z,96.00
2022-10-19T05:57:02.667Z,104.00
2022-10-19T05:58:02.637Z,116.00
2022-10-19T05:59:03.220Z,128.00
2022-10-19T06:00:02.935Z,140.00
2022-10-19T06:01:02.903Z,148.00
2022-10-19T06:02:01.851Z,156.00
2022-10-19T06:03:01.675Z,172.00
2022-10-19T06:04:02.117Z,180.00
2022-10-19T06:05:01.962Z,196.00
2022-10-19T06:06:01.761Z,212.00
2022-10-19T06:07:02.429Z,224.00
2022-10-19T06:08:02.440Z,244.00
2022-10-19T06:09:02.443Z,260.00
2022-10-19T06:10:02.436Z,284.00
2022-10-19T06:11:02.374Z,300.00
2022-10-19T06:12:02.087Z,304.00
2022-10-19T06:13:02.338Z,312.00
2022-10-19T06:14:02.286Z,340.00
2022-10-19T06:15:02.149Z,348.00
2022-10-19T06:16:02.096Z,368.00
2022-10-19T06:17:02.084Z,368.00
2022-10-19T06:18:01.950Z,396.00
2022-10-19T06:19:01.902Z,420.00
2022-10-19T06:20:02.100Z,432.00
2022-10-19T06:21:02.017Z,440.00
2022-10-19T06:22:02.617Z,440.00
2022-10-19T06:23:02.628Z,448.00
2022-10-19T06:24:02.683Z,460.00
2022-10-19T06:25:02.724Z,480.00
2022-10-19T06:26:02.633Z,504.00
2022-10-19T06:27:01.965Z,532.00
2022-10-19T06:28:01.970Z,556.00
2022-10-19T06:29:01.894Z,564.00
2022-10-19T06:30:01.902Z,576.00
2022-10-19T06:31:02.087Z,584.00
2022-10-19T06:32:02.468Z,600.00
2022-10-19T06:34:02.614Z,636.00
2022-10-19T06:35:02.518Z,656.00
2022-10-19T06:36:02.446Z,676.00
2022-10-19T06:37:02.105Z,704.00
2022-10-19T06:38:02.046Z,720.00
2022-10-19T06:39:02.315Z,752.00
2022-10-19T06:40:06.729Z,780.00
2022-10-19T06:41:02.227Z,808.00
2022-10-19T06:42:02.140Z,840.00
2022-10-19T06:43:02.096Z,840.00
2022-10-19T06:44:02.061Z,856.00
2022-10-19T06:45:01.980Z,884.00
2022-10-19T06:46:01.885Z,928.00
2022-10-19T06:47:02.302Z,980.00
2022-10-19T06:48:05.056Z,1024.00
2022-10-19T06:49:02.262Z,1068.00
2022-10-19T06:50:02.074Z,1116.00
2022-10-19T06:51:02.594Z,1164.00
2022-10-19T06:52:02.359Z,1200.00
2022-10-19T06:53:02.469Z,1252.00
2022-10-19T06:54:02.258Z,1248.00
2022-10-19T06:55:02.008Z,1344.00
2022-10-19T06:56:02.653Z,1460.00
2022-10-19T06:57:02.450Z,1592.00
2022-10-19T06:58:02.554Z,1672.00
2022-10-19T06:59:02.613Z,1792.00
2022-10-19T07:00:02.514Z,1956.00
2022-10-19T07:01:02.588Z,2340.00
2022-10-19T07:02:03.146Z,2728.00
2022-10-19T07:03:03.774Z,2544.00
2022-10-19T07:04:03.528Z,2604.00
2022-10-19T07:05:06.101Z,2512.00
2022-10-19T07:06:03.539Z,2760.00
2022-10-19T07:07:02.660Z,3012.00
2022-10-19T07:08:03.170Z,2640.00
2022-10-19T07:09:02.964Z,2584.00
2022-10-19T07:10:03.031Z,2700.00
2022-10-19T07:11:03.072Z,2848.00
2022-10-19T07:12:02.845Z,2944.00
2022-10-19T07:13:02.697Z,3348.00
2022-10-19T07:14:03.230Z,3856.00
2022-10-19T07:15:03.191Z,3740.00
2022-10-19T07:16:02.902Z,3492.00
2022-10-19T07:17:02.317Z,3380.00
2022-10-19T07:18:02.325Z,3628.00
2022-10-19T07:19:02.402Z,2852.00
2022-10-19T07:20:02.687Z,2928.00
2022-10-19T07:21:02.729Z,3120.00
2022-10-19T07:22:02.752Z,2748.00
2022-10-19T07:23:02.687Z,2844.00
2022-10-19T07:24:02.730Z,2804.00
2022-10-19T07:25:02.876Z,2584.00
2022-10-19T07:26:02.863Z,3228.00
2022-10-19T07:27:03.128Z,3364.00
2022-10-19T07:28:02.946Z,3460.00
2022-10-19T07:29:02.928Z,3640.00
2022-10-19T07:30:02.803Z,3808.00
2022-10-19T07:31:02.741Z,3264.00
2022-10-19T07:32:03.536Z,3700.00
2022-10-19T07:33:03.529Z,3728.00
2022-10-19T07:34:03.290Z,4204.00
2022-10-19T07:35:03.353Z,3456.00
2022-10-19T07:36:03.499Z,3320.00
2022-10-19T07:37:03.510Z,4104.00
2022-10-19T07:38:03.187Z,3748.00
2022-10-19T07:39:03.751Z,3524.00
2022-10-19T07:40:03.166Z,3156.00
2022-10-19T07:41:03.175Z,3652.00
2022-10-19T07:42:02.873Z,3920.00
2022-10-19T07:43:02.873Z,4040.00
2022-10-19T07:44:02.821Z,4148.00
2022-10-19T07:45:02.751Z,4284.00
2022-10-19T07:46:02.772Z,4328.00
2022-10-19T07:47:03.565Z,4172.00
2022-10-19T07:48:03.561Z,4548.00
2022-10-19T07:49:03.496Z,4196.00
2022-10-19T07:50:03.511Z,4280.00
2022-10-19T07:51:03.578Z,4260.00
2022-10-19T07:52:03.210Z,4568.00
2022-10-19T07:53:02.823Z,5076.00
2022-10-19T07:54:02.792Z,4808.00
2022-10-19T07:55:03.206Z,4424.00
2022-10-19T07:56:02.732Z,4456.00
2022-10-19T07:57:03.536Z,4784.00
2022-10-19T07:58:03.528Z,5156.00
2022-10-19T07:59:03.168Z,5620.00
2022-10-19T08:00:03.005Z,5216.00
2022-10-19T08:01:03.074Z,5056.00
2022-10-19T08:02:02.540Z,5424.00
2022-10-19T08:03:31.565Z,5008.00
2022-10-19T08:05:06.193Z,4604.00
2022-10-19T08:06:02.212Z,4768.00
2022-10-19T08:07:02.911Z,5124.00
2022-10-19T08:08:02.832Z,5056.00
2022-10-19T08:09:02.880Z,4956.00
2022-10-19T08:10:02.718Z,4888.00
2022-10-19T08:11:02.991Z,4812.00
2022-10-19T08:12:02.455Z,5220.00
2022-10-19T08:13:02.214Z,5076.00
2022-10-19T08:14:02.366Z,5012.00
2022-10-19T08:15:02.379Z,5640.00
2022-10-19T08:16:02.142Z,5388.00
2022-10-19T08:17:02.802Z,5252.00
2022-10-19T08:18:02.777Z,5128.00
2022-10-19T08:19:02.571Z,5420.00
2022-10-19T08:20:02.302Z,5316.00
2022-10-19T08:21:02.269Z,7084.00
2022-10-19T08:22:02.075Z,7312.00
2022-10-19T08:23:02.046Z,6108.00
2022-10-19T08:24:01.967Z,6560.00
2022-10-19T08:25:02.464Z,7728.00
2022-10-19T08:26:02.100Z,6988.00
2022-10-19T08:27:02.611Z,6484.00
2022-10-19T08:28:02.391Z,6152.00
2022-10-19T08:29:02.377Z,6596.00
2022-10-19T08:30:02.678Z,5612.00
2022-10-19T08:31:02.681Z,6432.00
2022-10-19T08:32:02.982Z,4476.00
2022-10-19T08:33:02.920Z,4432.00
2022-10-19T08:34:02.852Z,4488.00
2022-10-19T08:35:06.003Z,4636.00
2022-10-19T08:36:02.733Z,5352.00
2022-10-19T08:37:10.326Z,4512.00
2022-10-19T08:38:03.097Z,4928.00
2022-10-19T08:39:02.917Z,5936.00
2022-10-19T08:40:02.767Z,5308.00
2022-10-19T08:41:02.640Z,4436.00
2022-10-19T08:42:02.760Z,5340.00
2022-10-19T08:43:02.831Z,5996.00
2022-10-19T08:44:06.234Z,6480.00
2022-10-19T08:45:03.535Z,5224.00
2022-10-19T08:46:03.294Z,4964.00
2022-10-19T08:47:02.752Z,5600.00
2022-10-19T08:48:02.802Z,5100.00
2022-10-19T08:49:02.771Z,5532.00
2022-10-19T08:50:02.633Z,5808.00
2022-10-19T08:51:02.522Z,6500.00
2022-10-19T08:52:02.717Z,6420.00
2022-10-19T08:53:03.088Z,6180.00
2022-10-19T08:54:02.838Z,5588.00
2022-10-19T08:55:03.530Z,7852.00
2022-10-19T08:56:04.477Z,6320.00
2022-10-19T08:57:02.809Z,5060.00
2022-10-19T08:58:02.367Z,5076.00
2022-10-19T08:59:02.316Z,4752.00
2022-10-19T09:00:02.298Z,5500.00
2022-10-19T09:01:02.295Z,4416.00
2022-10-19T09:02:02.520Z,5844.00
2022-10-19T09:03:02.443Z,4884.00
2022-10-19T09:04:02.764Z,5408.00
2022-10-19T09:05:02.801Z,6524.00
2022-10-19T09:06:02.469Z,4924.00
2022-10-19T09:07:03.519Z,6724.00
2022-10-19T09:08:03.441Z,7460.00
2022-10-19T09:09:03.550Z,4932.00
2022-10-19T09:10:03.532Z,5360.00
2022-10-19T09:11:03.258Z,7796.00
2022-10-19T09:12:02.262Z,18240.00
2022-10-19T09:13:02.501Z,14368.00
2022-10-19T09:14:06.315Z,18560.00
2022-10-19T09:15:02.411Z,19200.00
2022-10-19T09:16:02.342Z,18208.00
2022-10-19T09:17:03.454Z,17920.00
2022-10-19T09:18:02.819Z,18496.00
2022-10-19T09:19:02.899Z,18208.00
2022-10-19T09:20:02.945Z,18304.00
2022-10-19T09:21:02.860Z,17600.00
2022-10-19T09:22:03.021Z,17664.00
2022-10-19T09:23:02.427Z,17920.00
2022-10-19T09:24:02.947Z,18720.00
2022-10-19T09:25:02.923Z,19552.00
2022-10-19T09:26:02.869Z,19168.00
2022-10-19T09:27:03.028Z,18368.00
2022-10-19T09:28:03.047Z,17504.00
2022-10-19T09:29:02.968Z,16640.00
2022-10-19T09:30:03.052Z,13888.00
2022-10-19T09:31:02.979Z,13304.00
2022-10-19T09:32:02.702Z,11764.00
2022-10-19T09:33:02.895Z,8520.00
2022-10-19T09:34:02.534Z,6392.00
2022-10-19T09:35:02.537Z,6276.00
2022-10-19T09:36:02.921Z,5996.00
2022-10-19T09:37:02.972Z,6092.00
2022-10-19T09:38:03.032Z,6880.00
2022-10-19T09:39:03.018Z,7220.00
2022-10-19T09:40:02.983Z,6864.00
2022-10-19T09:41:02.963Z,6768.00
2022-10-19T09:42:02.955Z,5788.00
2022-10-19T09:43:03.035Z,5280.00
2022-10-19T09:44:03.090Z,4416.00
2022-10-19T09:45:03.076Z,4832.00
2022-10-19T09:46:05.050Z,4440.00
2022-10-19T09:47:03.025Z,4440.00
2022-10-19T09:48:08.686Z,4424.00
2022-10-19T09:49:03.358Z,4472.00
2022-10-19T09:50:03.145Z,4488.00
2022-10-19T09:51:02.999Z,4660.00
2022-10-19T09:52:02.834Z,4780.00
2022-10-19T09:53:02.975Z,5052.00
2022-10-19T09:54:02.388Z,5640.00
2022-10-19T09:55:02.738Z,6188.00
2022-10-19T09:56:02.741Z,6888.00
2022-10-19T09:57:03.379Z,6268.00
2022-10-19T09:58:03.509Z,9876.00
2022-10-19T09:59:03.494Z,11388.00
2022-10-19T10:00:03.472Z,11464.00
2022-10-19T10:01:03.674Z,13184.00
2022-10-19T10:03:03.584Z,14784.00
2022-10-19T10:04:03.704Z,14976.00
2022-10-19T10:05:03.400Z,15584.00
2022-10-19T10:06:03.545Z,15840.00
2022-10-19T10:07:02.750Z,12608.00
2022-10-19T10:08:02.553Z,15424.00
2022-10-19T10:09:02.708Z,15680.00
2022-10-19T10:10:02.926Z,16448.00
2022-10-19T10:11:02.522Z,15936.00
2022-10-19T10:12:02.957Z,16192.00
2022-10-19T10:13:02.801Z,16192.00
2022-10-19T10:14:04.978Z,16320.00
2022-10-19T10:15:03.269Z,16320.00
2022-10-19T10:16:02.684Z,15904.00
2022-10-19T10:17:03.522Z,14912.00
2022-10-19T10:18:03.313Z,15200.00
2022-10-19T10:19:03.300Z,15712.00
2022-10-19T10:20:03.531Z,15264.00
2022-10-19T10:21:05.908Z,16064.00
2022-10-19T10:22:03.147Z,14880.00
2022-10-19T10:23:03.165Z,13784.00
2022-10-19T10:24:02.923Z,13160.00
2022-10-19T10:25:02.907Z,12664.00
2022-10-19T10:26:03.094Z,12128.00
2022-10-19T10:27:03.491Z,12508.00
2022-10-19T10:28:03.548Z,12476.00
2022-10-19T10:29:03.325Z,11548.00
2022-10-19T10:30:03.510Z,11216.00
2022-10-19T10:31:03.513Z,18656.00
2022-10-19T10:32:02.779Z,12232.00
2022-10-19T10:33:13.426Z,8420.00
2022-10-19T10:34:11.078Z,19456.00
2022-10-19T10:35:02.323Z,13172.00
2022-10-19T10:36:02.648Z,11764.00
2022-10-19T10:37:02.934Z,10744.00
2022-10-19T10:38:02.878Z,10560.00
2022-10-19T10:40:03.957Z,10040.00
2022-10-19T10:41:03.036Z,10104.00
2022-10-19T10:42:02.965Z,9616.00
2022-10-19T10:43:02.821Z,9628.00
2022-10-19T10:44:04.779Z,9276.00
2022-10-19T10:45:03.115Z,9180.00
2022-10-19T10:46:02.801Z,9772.00
2022-10-19T10:47:03.190Z,8860.00
2022-10-19T10:48:02.757Z,8444.00
2022-10-19T10:49:03.183Z,8520.00
2022-10-19T10:50:02.923Z,8468.00
2022-10-19T10:51:02.978Z,8736.00
2022-10-19T10:52:03.423Z,9752.00
2022-10-19T10:53:03.503Z,10740.00
2022-10-19T10:54:03.040Z,9120.00
2022-10-19T10:55:03.013Z,10884.00
2022-10-19T10:56:03.502Z,11060.00
2022-10-19T10:57:04.417Z,9304.00
2022-10-19T10:58:03.759Z,11720.00
2022-10-19T10:59:03.486Z,10876.00
2022-10-19T11:00:03.141Z,9876.00
2022-10-19T11:01:06.705Z,11328.00
2022-10-19T11:02:03.009Z,11960.00
2022-10-19T11:03:02.706Z,12256.00
2022-10-19T11:04:02.838Z,14272.00
2022-10-19T11:05:02.583Z,17920.00
2022-10-19T11:06:03.022Z,18048.00
2022-10-19T11:07:02.584Z,18688.00
2022-10-19T11:08:02.010Z,18368.00
2022-10-19T11:09:02.197Z,18080.00
2022-10-19T11:10:02.199Z,17184.00
2022-10-19T11:11:02.443Z,17984.00
2022-10-19T11:12:02.626Z,17120.00
2022-10-19T11:13:02.642Z,18464.00
2022-10-19T11:14:02.780Z,11484.00
2022-10-19T11:15:02.865Z,11412.00
2022-10-19T11:16:02.241Z,11684.00
2022-10-19T11:17:03.191Z,11824.00
2022-10-19T11:18:02.721Z,12688.00
2022-10-19T11:19:02.774Z,13324.00
2022-10-19T11:20:02.844Z,12616.00
2022-10-19T11:21:02.623Z,11776.00
2022-10-19T11:22:02.818Z,12148.00
2022-10-19T11:23:02.709Z,11616.00
2022-10-19T11:24:02.776Z,11696.00
2022-10-19T11:25:02.637Z,11664.00
2022-10-19T11:26:02.249Z,11444.00
2022-10-19T11:27:03.505Z,11652.00
2022-10-19T11:28:03.514Z,11772.00
2022-10-19T11:29:02.936Z,11296.00
2022-10-19T11:30:03.211Z,11428.00
2022-10-19T11:31:02.885Z,11296.00
2022-10-19T11:32:02.436Z,11532.00
2022-10-19T11:33:02.550Z,11892.00
2022-10-19T11:34:02.758Z,11656.00
2022-10-19T11:35:02.451Z,11548.00
2022-10-19T11:36:02.465Z,11444.00
2022-10-19T11:37:02.635Z,10948.00
2022-10-19T11:38:21.148Z,10856.00
2022-10-19T11:39:03.146Z,11192.00
2022-10-19T11:40:03.208Z,11372.00
2022-10-19T11:41:19.146Z,11072.00
2022-10-19T11:42:02.867Z,10228.00
2022-10-19T11:43:03.520Z,10396.00
2022-10-19T11:44:02.929Z,10464.00
2022-10-19T11:45:03.046Z,10552.00
2022-10-19T11:46:03.502Z,10568.00
2022-10-19T11:47:03.520Z,10508.00
2022-10-19T11:48:02.682Z,10212.00
2022-10-19T11:49:02.741Z,10716.00
2022-10-19T11:50:02.625Z,11004.00
2022-10-19T11:51:20.540Z,11280.00
2022-10-19T11:52:02.848Z,11628.00
2022-10-19T11:53:02.080Z,11756.00
2022-10-19T11:54:02.102Z,12640.00
2022-10-19T11:55:02.527Z,13092.00
2022-10-19T11:56:02.297Z,10736.00
2022-10-19T11:57:04.729Z,15040.00
2022-10-19T11:58:03.155Z,14944.00
2022-10-19T11:59:02.709Z,15264.00
2022-10-19T12:00:14.064Z,14976.00
2022-10-19T12:01:03.075Z,14624.00
2022-10-19T12:02:03.334Z,15360.00
2022-10-19T12:03:03.818Z,15424.00
2022-10-19T12:04:02.074Z,14432.00
2022-10-19T12:05:02.236Z,14592.00
2022-10-19T12:06:02.007Z,15520.00
2022-10-19T12:07:02.379Z,15584.00
2022-10-19T12:08:02.092Z,16320.00
2022-10-19T12:09:02.267Z,16640.00
2022-10-19T12:10:02.531Z,16864.00
2022-10-19T12:11:02.304Z,16704.00
2022-10-19T12:12:02.457Z,15392.00
2022-10-19T12:13:02.430Z,16256.00
2022-10-19T12:14:02.637Z,14784.00
2022-10-19T12:15:02.390Z,13172.00
2022-10-19T12:16:02.559Z,8760.00
2022-10-19T12:17:02.428Z,10004.00
2022-10-19T12:18:02.404Z,11488.00
2022-10-19T12:19:02.514Z,10800.00
2022-10-19T12:20:02.440Z,10228.00
2022-10-19T12:21:02.668Z,8228.00
2022-10-19T12:22:02.463Z,12504.00
2022-10-19T12:23:02.112Z,4420.00
2022-10-19T12:24:02.343Z,5040.00
2022-10-19T12:25:01.940Z,7208.00
2022-10-19T12:26:01.989Z,8276.00
2022-10-19T12:27:01.883Z,7484.00
2022-10-19T12:28:02.453Z,8748.00
2022-10-19T12:29:02.258Z,9356.00
2022-10-19T12:30:02.236Z,9044.00
2022-10-19T12:31:02.380Z,7608.00
2022-10-19T12:32:02.641Z,6704.00
2022-10-19T12:33:02.788Z,6520.00
2022-10-19T12:34:02.400Z,7324.00
2022-10-19T12:35:02.399Z,7040.00
2022-10-19T12:36:02.561Z,10668.00
2022-10-19T12:37:02.333Z,11352.00
2022-10-19T12:38:02.067Z,10732.00
2022-10-19T12:39:01.679Z,8988.00